Time;durP1;ratioP1;P1;durP2;ratioP2;P2;SDS_P1;SDS_P2;PMS_P1;PMS_P2;Temp;Humidity;BMP_temperature;BMP_pressure;BME280_temperature;BME280_humidity;BME280_pressure;Samples;Min_cycle;Max_cycle;Signal;HPM_P1;HPM_P2
2023/03/12 00:01:22;;;;;;;9.02;3.80;;;1.20;99.90;;;;;;5074489;22;20040;-70
2023/03/12 00:03:49;;;;;;;11.18;4.30;;;1.20;99.90;;;;;;5050756;28;20068;-70
2023/03/12 00:06:16;;;;;;;7.82;3.78;;;1.30;99.90;;;;;;5033588;28;20047;-70
2023/03/12 00:08:41;;;;;;;6.78;3.58;;;1.20;99.90;;;;;;5050970;28;20090;-70
2023/03/12 00:11:09;;;;;;;5.88;3.60;;;1.20;99.90;;;;;;5051360;28;20037;-70
2023/03/12 00:13:35;;;;;;;5.40;3.10;;;1.10;99.90;;;;;;5033422;28;20133;-70
2023/03/12 00:16:09;;;;;;;6.85;3.97;;;1.20;99.90;;;;;;5051363;28;20377;-70
2023/03/12 00:18:34;;;;;;;8.23;3.70;;;1.10;99.90;;;;;;5033663;28;20037;-70
2023/03/12 00:21:00;;;;;;;4.15;3.13;;;1.10;99.90;;;;;;5033121;28;20493;-70
2023/03/12 00:23:26;;;;;;;7.90;3.50;;;1.10;99.90;;;;;;5050711;28;20041;-70
2023/03/12 00:25:51;;;;;;;4.85;2.97;;;1.10;99.90;;;;;;5032853;28;20052;-70
2023/03/12 00:28:17;;;;;;;6.05;3.75;;;1.00;99.90;;;;;;5051494;28;20408;-70
2023/03/12 00:30:42;;;;;;;6.53;3.28;;;1.10;99.90;;;;;;5051246;28;20029;-70
2023/03/12 00:33:10;;;;;;;7.72;3.25;;;1.00;99.90;;;;;;5017824;28;20037;-70
2023/03/12 00:35:37;;;;;;;5.93;3.47;;;1.00;99.90;;;;;;5055090;28;20043;-70
2023/03/12 00:38:03;;;;;;;6.88;2.85;;;1.10;99.90;;;;;;5037223;28;20036;-70
2023/03/12 00:40:29;;;;;;;7.03;3.05;;;1.00;99.90;;;;;;5055189;28;20043;-71
2023/03/12 00:42:55;;;;;;;6.32;2.90;;;0.90;99.90;;;;;;5054895;28;20500;-70
2023/03/12 00:45:20;;;;;;;6.43;3.53;;;1.00;99.90;;;;;;5020516;28;20052;-70
2023/03/12 00:47:46;;;;;;;4.85;3.58;;;1.00;99.90;;;;;;5036999;28;20052;-70
2023/03/12 00:50:11;;;;;;;5.93;3.22;;;1.00;99.90;;;;;;5054843;28;20036;-70
2023/03/12 00:52:37;;;;;;;6.60;3.67;;;0.90;99.90;;;;;;5054632;28;20128;-70
2023/03/12 00:55:02;;;;;;;6.47;3.78;;;0.80;99.90;;;;;;5020161;28;20055;-70
2023/03/12 00:57:28;;;;;;;5.82;3.80;;;0.90;99.90;;;;;;5036933;28;20036;-70
2023/03/12 00:59:54;;;;;;;5.85;3.80;;;0.90;99.90;;;;;;5054706;28;20044;-70
2023/03/12 01:02:19;;;;;;;7.97;3.70;;;0.90;99.90;;;;;;5036395;28;20530;-70
2023/03/12 01:04:45;;;;;;;7.38;3.75;;;0.90;99.90;;;;;;5036639;28;20033;-70
2023/03/12 01:07:11;;;;;;;5.85;3.28;;;0.90;99.90;;;;;;5036672;28;20436;-70
2023/03/12 01:09:36;;;;;;;6.05;3.15;;;0.80;99.90;;;;;;5036696;28;20171;-70
2023/03/12 01:12:02;;;;;;;5.50;3.50;;;0.80;99.90;;;;;;5054379;28;20040;-70
2023/03/12 01:14:27;;;;;;;6.82;4.35;;;0.80;99.90;;;;;;5054278;28;20037;-70
2023/03/12 01:16:53;;;;;;;7.75;4.18;;;0.70;99.90;;;;;;5019977;28;20044;-70
2023/03/12 01:19:18;;;;;;;7.80;3.40;;;0.70;99.90;;;;;;5036478;28;20041;-69
2023/03/12 01:21:44;;;;;;;7.28;4.10;;;0.70;99.90;;;;;;5036243;28;20412;-70
2023/03/12 01:24:09;;;;;;;5.38;3.97;;;0.80;99.90;;;;;;5053717;28;20116;-70
2023/03/12 01:26:35;;;;;;;6.28;3.70;;;0.80;99.90;;;;;;5036287;28;20037;-70
2023/03/12 01:29:00;;;;;;;5.22;3.35;;;0.70;99.90;;;;;;5036315;28;20045;-70
2023/03/12 01:31:26;;;;;;;9.15;4.55;;;0.60;99.90;;;;;;5054062;28;20041;-70
2023/03/12 01:33:52;;;;;;;6.55;3.47;;;0.80;99.90;;;;;;5053237;28;20492;-70
2023/03/12 01:36:26;;;;;;;6.00;4.07;;;0.60;99.90;;;;;;5034784;28;20045;-70
2023/03/12 01:38:54;;;;;;;6.65;3.97;;;0.70;99.90;;;;;;5052751;28;20492;-70
2023/03/12 01:41:21;;;;;;;6.88;4.65;;;0.60;99.90;;;;;;5053215;28;20041;-70
2023/03/12 01:43:47;;;;;;;7.63;5.00;;;0.70;99.90;;;;;;5035129;28;20049;-70
2023/03/12 01:46:29;;;;;;;10.68;5.15;;;0.60;99.90;;;;;;5035083;28;20408;-70
2023/03/12 01:49:14;;;;;;;7.22;5.03;;;0.60;99.90;;;;;;5035942;28;20041;-70
2023/03/12 01:52:24;;;;;;;6.95;4.97;;;0.60;99.90;;;;;;5035815;28;20041;-70
2023/03/12 01:54:58;;;;;;;6.30;4.60;;;0.70;99.90;;;;;;4972337;28;20118;-70
2023/03/12 01:57:47;;;;;;;6.28;4.53;;;0.70;99.90;;;;;;5040971;28;20080;-70
2023/03/12 02:00:18;;;;;;;6.00;4.30;;;0.70;99.90;;;;;;5053614;28;20492;-71
2023/03/12 02:02:46;;;;;;;4.72;4.03;;;0.60;99.90;;;;;;5035479;28;20589;-71
2023/03/12 02:05:27;;;;;;;8.55;4.50;;;0.60;99.90;;;;;;5053400;28;20128;-69
2023/03/12 02:07:53;;;;;;;7.10;4.38;;;0.60;99.90;;;;;;5035518;28;20121;-70
2023/03/12 02:10:20;;;;;;;7.18;3.75;;;0.70;99.90;;;;;;5035537;28;20048;-70
2023/03/12 02:12:45;;;;;;;8.15;5.07;;;0.70;99.90;;;;;;5035302;28;20451;-70
2023/03/12 02:15:11;;;;;;;7.45;4.70;;;0.70;99.90;;;;;;5035231;28;20037;-70
2023/03/12 02:17:39;;;;;;;7.07;4.65;;;0.70;99.90;;;;;;5035423;28;20482;-70
2023/03/12 02:20:18;;;;;;;11.77;5.32;;;0.70;99.90;;;;;;5053242;28;20037;-70
2023/03/12 02:22:50;;;;;;;6.30;4.38;;;0.80;99.90;;;;;;5035482;28;20048;-70
2023/03/12 02:25:41;;;;;;;8.65;5.07;;;0.80;99.90;;;;;;5035074;28;20497;-70
2023/03/12 02:28:11;;;;;;;6.10;4.03;;;0.80;99.90;;;;;;5034828;28;20067;-70
2023/03/12 02:30:41;;;;;;;6.40;3.90;;;0.80;99.90;;;;;;5035425;28;20641;-70
2023/03/12 02:33:08;;;;;;;6.13;3.95;;;0.90;99.90;;;;;;5034877;28;20513;-69
2023/03/12 02:35:34;;;;;;;10.25;3.83;;;0.90;99.90;;;;;;5035128;28;20044;-70
2023/03/12 02:37:59;;;;;;;8.20;3.97;;;0.90;99.90;;;;;;5035010;28;20048;-70
2023/03/12 02:40:38;;;;;;;6.13;4.25;;;0.90;99.90;;;;;;5034908;28;20043;-70
2023/03/12 02:43:06;;;;;;;8.57;3.80;;;0.90;99.90;;;;;;5052690;28;20040;-70
2023/03/12 02:45:34;;;;;;;6.32;3.47;;;1.00;99.90;;;;;;5018495;28;20048;-69
2023/03/12 02:48:01;;;;;;;7.97;4.22;;;0.90;99.90;;;;;;5034716;28;20396;-70
2023/03/12 02:50:27;;;;;;;7.07;4.10;;;1.00;99.90;;;;;;5034866;28;20045;-70
2023/03/12 02:52:53;;;;;;;6.32;3.95;;;1.00;99.90;;;;;;5034740;28;20511;-70
2023/03/12 02:55:18;;;;;;;5.95;3.97;;;1.00;99.90;;;;;;5034326;28;20095;-70
2023/03/12 02:57:44;;;;;;;5.60;3.88;;;1.10;99.90;;;;;;5052206;28;20040;-70
2023/03/12 03:00:12;;;;;;;5.80;3.38;;;1.00;99.90;;;;;;5034482;28;20076;-70
2023/03/12 03:02:38;;;;;;;5.18;3.47;;;1.00;99.90;;;;;;5052060;28;20041;-70
2023/03/12 03:05:04;;;;;;;6.68;3.50;;;1.10;99.90;;;;;;5034200;28;20037;-70
2023/03/12 03:07:30;;;;;;;8.30;4.43;;;1.00;99.90;;;;;;5034477;28;20424;-70
2023/03/12 03:09:55;;;;;;;8.55;3.55;;;1.00;99.90;;;;;;5052310;28;20500;-70
2023/03/12 03:12:21;;;;;;;7.97;3.80;;;1.00;99.90;;;;;;5052106;28;20074;-70
2023/03/12 03:14:47;;;;;;;5.85;3.42;;;1.10;99.90;;;;;;5052169;28;20059;-70
2023/03/12 03:17:13;;;;;;;4.95;3.30;;;1.00;99.90;;;;;;5034555;28;20041;-70
2023/03/12 03:19:39;;;;;;;5.88;3.25;;;1.00;99.90;;;;;;5052327;28;20068;-70
2023/03/12 03:22:04;;;;;;;7.25;3.83;;;1.00;99.90;;;;;;5052038;28;20037;-70
2023/03/12 03:24:30;;;;;;;7.22;3.42;;;1.00;99.90;;;;;;5051750;28;20094;-70
2023/03/12 03:26:55;;;;;;;6.53;3.38;;;0.90;99.90;;;;;;5051940;28;20044;-70
2023/03/12 03:29:21;;;;;;;7.28;3.33;;;1.00;99.90;;;;;;5052210;28;20040;-70
2023/03/12 03:31:47;;;;;;;5.70;3.53;;;1.00;99.90;;;;;;5033960;28;20037;-70
2023/03/12 03:34:12;;;;;;;8.88;3.97;;;1.00;99.90;;;;;;5033795;28;20393;-70
2023/03/12 03:36:38;;;;;;;10.88;4.30;;;1.10;99.90;;;;;;5051917;28;20048;-70
2023/03/12 03:39:04;;;;;;;7.35;4.35;;;1.00;99.90;;;;;;5017541;28;20041;-69
2023/03/12 03:41:31;;;;;;;8.73;4.18;;;1.00;99.90;;;;;;5033813;28;20094;-70
2023/03/12 03:43:58;;;;;;;9.88;4.35;;;1.00;99.90;;;;;;5033592;28;20056;-70
2023/03/12 03:46:23;;;;;;;12.32;4.35;;;1.00;99.90;;;;;;5033758;28;20091;-70
2023/03/12 03:48:49;;;;;;;12.68;4.35;;;1.10;99.90;;;;;;5034336;28;20041;-70
2023/03/12 03:51:15;;;;;;;8.90;3.78;;;1.10;99.90;;;;;;5033831;28;20041;-70
2023/03/12 03:53:41;;;;;;;4.90;3.53;;;1.00;99.90;;;;;;5033539;28;20043;-70
2023/03/12 03:56:12;;;;;;;5.45;3.47;;;1.00;99.90;;;;;;5033711;28;20159;-70
2023/03/12 03:58:38;;;;;;;7.60;4.22;;;1.00;99.90;;;;;;5033722;28;20099;-70
2023/03/12 04:01:04;;;;;;;5.78;3.97;;;1.00;99.90;;;;;;5033754;28;20041;-70
2023/03/12 04:03:30;;;;;;;7.53;4.05;;;1.00;99.90;;;;;;5033479;28;20052;-70
2023/03/12 04:05:59;;;;;;;4.18;3.17;;;1.00;99.90;;;;;;5033814;28;20037;-70
2023/03/12 04:08:24;;;;;;;8.48;4.40;;;1.00;99.90;;;;;;5035075;28;20048;-70
2023/03/12 04:10:50;;;;;;;11.50;5.40;;;1.00;99.90;;;;;;5055562;28;20052;-70
2023/03/12 04:13:16;;;;;;;8.40;4.32;;;1.00;99.90;;;;;;5055707;28;20041;-70
2023/03/12 04:15:49;;;;;;;7.95;4.30;;;1.00;99.90;;;;;;5037561;28;20097;-70
2023/03/12 04:18:15;;;;;;;;;;;1.10;99.90;;;;;;5056078;28;20073;-69
2023/03/12 04:20:41;;;;;;;6.70;3.65;;;1.10;99.90;;;;;;5055514;28;20078;-70
2023/03/12 04:23:06;;;;;;;6.75;4.15;;;1.00;99.90;;;;;;5055205;28;20186;-70
2023/03/12 04:25:32;;;;;;;8.93;4.05;;;1.00;99.90;;;;;;5037427;28;20037;-70
2023/03/12 04:27:57;;;;;;;8.52;5.03;;;1.00;99.90;;;;;;5037457;28;20052;-70
2023/03/12 04:30:23;;;;;;;8.50;4.20;;;1.10;99.90;;;;;;5055309;28;20408;-70
2023/03/12 04:32:49;;;;;;;9.45;4.32;;;1.00;99.90;;;;;;5037313;28;20063;-70
2023/03/12 04:35:14;;;;;;;8.00;4.00;;;1.10;99.90;;;;;;5037166;28;20412;-69
2023/03/12 04:37:40;;;;;;;11.48;4.20;;;1.10;99.90;;;;;;5055130;28;20051;-70
2023/03/12 04:40:06;;;;;;;6.28;3.75;;;1.10;99.90;;;;;;5037190;28;20041;-70
2023/03/12 04:42:36;;;;;;;8.43;3.85;;;1.10;99.90;;;;;;5037186;28;20050;-70
2023/03/12 04:45:03;;;;;;;9.48;5.05;;;1.10;99.90;;;;;;5054964;28;20049;-70
2023/03/12 04:47:30;;;;;;;8.45;4.15;;;1.10;99.90;;;;;;5037015;28;20087;-69
2023/03/12 04:49:56;;;;;;;6.82;3.78;;;1.10;99.90;;;;;;5037129;28;20083;-70
2023/03/12 04:52:21;;;;;;;8.68;4.30;;;1.20;99.90;;;;;;5036886;28;20072;-70
2023/03/12 04:54:47;;;;;;;5.25;3.90;;;1.10;99.90;;;;;;5054797;28;20039;-70
2023/03/12 04:57:12;;;;;;;6.88;4.53;;;1.10;99.90;;;;;;5055021;28;20045;-70
2023/03/12 04:59:38;;;;;;;6.72;4.30;;;1.10;99.90;;;;;;5054868;28;20454;-70
2023/03/12 05:02:03;;;;;;;7.57;4.20;;;1.10;99.90;;;;;;5036549;28;20127;-70
2023/03/12 05:04:29;;;;;;;7.40;4.20;;;1.20;99.90;;;;;;5036848;28;20045;-70
2023/03/12 05:06:54;;;;;;;6.03;4.13;;;1.20;99.90;;;;;;5036671;28;20049;-70
2023/03/12 05:09:20;;;;;;;12.95;5.18;;;1.20;99.90;;;;;;5036626;28;20403;-70
2023/03/12 05:11:46;;;;;;;7.22;4.15;;;1.20;99.90;;;;;;5054392;28;20039;-70
2023/03/12 05:14:11;;;;;;;5.03;3.95;;;1.20;99.90;;;;;;5020106;28;20400;-70
2023/03/12 05:16:37;;;;;;;10.70;5.13;;;1.10;99.90;;;;;;5050696;28;20048;-70
2023/03/12 05:19:03;;;;;;;8.23;4.85;;;1.10;99.90;;;;;;5036046;28;20045;-70
2023/03/12 05:21:29;;;;;;;8.32;4.57;;;1.10;99.90;;;;;;5036074;28;20056;-69
2023/03/12 05:23:55;;;;;;;10.40;4.30;;;1.10;99.90;;;;;;5036375;28;20071;-70
2023/03/12 05:26:23;;;;;;;8.27;5.47;;;1.20;99.90;;;;;;5054207;28;20045;-70
2023/03/12 05:28:49;;;;;;;8.93;5.22;;;1.10;99.90;;;;;;5036372;28;20127;-70
2023/03/12 05:31:15;;;;;;;9.02;5.20;;;1.20;99.90;;;;;;5036139;28;20108;-70
2023/03/12 05:33:41;;;;;;;19.95;6.25;;;1.20;99.90;;;;;;5053941;28;20087;-70
2023/03/12 05:36:07;;;;;;;7.20;4.80;;;1.20;99.90;;;;;;5019639;28;20051;-70
2023/03/12 05:38:34;;;;;;;6.90;5.53;;;1.20;99.90;;;;;;5054248;28;20069;-70
2023/03/12 05:40:59;;;;;;;20.60;6.25;;;1.20;99.90;;;;;;5036188;28;20037;-70
2023/03/12 05:43:25;;;;;;;10.32;5.07;;;1.20;99.90;;;;;;5053800;28;20087;-70
2023/03/12 05:45:51;;;;;;;10.40;5.78;;;1.20;99.90;;;;;;5036209;28;20037;-70
2023/03/12 05:48:17;;;;;;;7.53;5.05;;;1.30;99.90;;;;;;5053856;28;20049;-70
2023/03/12 05:50:43;;;;;;;9.60;5.68;;;1.30;99.90;;;;;;5035844;28;20401;-69
2023/03/12 05:53:09;;;;;;;10.07;5.68;;;1.30;99.90;;;;;;5053739;28;20032;-69
2023/03/12 05:55:37;;;;;;;9.15;5.35;;;1.30;99.90;;;;;;5035781;28;20037;-69
2023/03/12 05:58:03;;;;;;;9.40;6.00;;;1.40;99.90;;;;;;5035889;28;20405;-69
2023/03/12 06:00:30;;;;;;;12.55;5.70;;;1.40;99.90;;;;;;5035445;28;20048;-70
2023/03/12 06:02:55;;;;;;;7.65;5.35;;;1.30;99.90;;;;;;5055348;22;20117;-72
2023/03/12 06:05:21;;;;;;;9.38;5.57;;;1.40;99.90;;;;;;5050649;28;20033;-71
2023/03/12 06:07:47;;;;;;;9.35;6.15;;;1.40;99.90;;;;;;5033494;28;20095;-71
2023/03/12 06:10:12;;;;;;;12.52;6.45;;;1.30;99.90;;;;;;5033604;28;20029;-71
2023/03/12 06:12:38;;;;;;;10.45;5.80;;;1.40;99.90;;;;;;5051395;28;20420;-72
2023/03/12 06:15:04;;;;;;;9.02;6.05;;;1.40;99.90;;;;;;5051334;28;20037;-72
2023/03/12 06:17:30;;;;;;;12.23;6.63;;;1.50;99.90;;;;;;5051243;28;20048;-72
2023/03/12 06:19:56;;;;;;;11.10;6.47;;;1.40;99.90;;;;;;5052677;28;20044;-71
2023/03/12 06:22:22;;;;;;;10.48;7.28;;;1.40;99.90;;;;;;5053060;28;20056;-72
2023/03/12 06:24:47;;;;;;;11.93;6.57;;;1.40;99.90;;;;;;5052859;28;20041;-72
2023/03/12 06:27:14;;;;;;;11.05;7.22;;;1.50;99.90;;;;;;5053153;28;20512;-72
2023/03/12 06:29:40;;;;;;;11.88;7.18;;;1.50;99.90;;;;;;5053107;28;20033;-71
2023/03/12 06:32:06;;;;;;;9.98;7.07;;;1.50;99.90;;;;;;5052258;28;20037;-72
2023/03/12 06:34:31;;;;;;;9.18;7.30;;;1.50;99.90;;;;;;5052597;28;20047;-72
2023/03/12 06:36:57;;;;;;;17.38;8.55;;;1.40;99.90;;;;;;5053080;28;20037;-72
2023/03/12 06:39:23;;;;;;;15.40;9.38;;;1.50;99.90;;;;;;5052880;28;20574;-72
2023/03/12 06:41:48;;;;;;;15.57;8.18;;;1.60;99.90;;;;;;5052845;28;20039;-71
2023/03/12 06:44:14;;;;;;;15.05;8.40;;;1.50;99.90;;;;;;5052540;28;20124;-71
2023/03/12 06:46:40;;;;;;;9.20;7.13;;;1.50;99.90;;;;;;5052669;28;20040;-71
2023/03/12 06:49:06;;;;;;;11.50;7.70;;;1.50;99.90;;;;;;5052651;28;20412;-71
2023/03/12 06:51:31;;;;;;;10.38;7.53;;;1.50;99.90;;;;;;5052648;28;20108;-71
2023/03/12 06:53:57;;;;;;;13.55;8.70;;;1.60;99.90;;;;;;5052220;28;20451;-71
2023/03/12 06:56:22;;;;;;;15.65;8.38;;;1.60;99.90;;;;;;5052644;28;20045;-71
2023/03/12 06:58:48;;;;;;;11.75;7.60;;;1.60;99.90;;;;;;5052601;28;20116;-71
2023/03/12 07:01:14;;;;;;;14.23;9.07;;;1.60;99.90;;;;;;5052266;28;20432;-71
2023/03/12 07:03:40;;;;;;;12.75;7.85;;;1.60;99.90;;;;;;5052064;28;20044;-71
2023/03/12 07:06:12;;;;;;;14.00;9.23;;;1.70;99.90;;;;;;5052425;28;20044;-71
2023/03/12 07:08:38;;;;;;;12.00;8.63;;;1.70;99.90;;;;;;5052538;28;20041;-71
2023/03/12 07:11:03;;;;;;;15.38;8.75;;;1.70;99.90;;;;;;5052258;28;20090;-71
2023/03/12 07:13:29;;;;;;;13.85;8.25;;;1.80;99.90;;;;;;5051903;28;20453;-71
2023/03/12 07:15:55;;;;;;;11.75;8.05;;;1.80;99.90;;;;;;5052242;28;20037;-71
2023/03/12 07:18:20;;;;;;;11.80;7.47;;;1.90;99.90;;;;;;5052051;28;20036;-72
2023/03/12 07:20:46;;;;;;;12.45;8.30;;;1.80;99.90;;;;;;5052259;28;20134;-72
2023/03/12 07:23:12;;;;;;;14.05;8.45;;;1.90;99.90;;;;;;5051811;28;20511;-71
2023/03/12 07:25:39;;;;;;;13.25;7.95;;;1.80;99.90;;;;;;5051828;28;20500;-71
2023/03/12 07:28:06;;;;;;;11.07;8.43;;;1.90;99.90;;;;;;5051908;28;20171;-71
2023/03/12 07:30:32;;;;;;;11.95;7.85;;;2.00;99.90;;;;;;5051916;28;20477;-71
2023/03/12 07:33:02;;;;;;;11.30;8.05;;;1.90;99.90;;;;;;5051779;28;20033;-71
2023/03/12 07:35:28;;;;;;;15.07;9.30;;;1.90;99.90;;;;;;5051896;28;20094;-71
2023/03/12 07:37:53;;;;;;;13.02;8.88;;;2.00;99.90;;;;;;5052085;28;20515;-71
2023/03/12 07:40:19;;;;;;;11.48;8.23;;;2.00;99.90;;;;;;5051797;28;20047;-71
2023/03/12 07:42:44;;;;;;;12.35;8.00;;;2.00;99.90;;;;;;5051709;28;20045;-71
2023/03/12 07:45:10;;;;;;;12.40;9.13;;;1.90;99.90;;;;;;5033872;28;20124;-71
2023/03/12 07:47:36;;;;;;;12.55;9.60;;;2.00;99.90;;;;;;5051541;28;20044;-72
2023/03/12 07:50:02;;;;;;;16.10;9.63;;;2.00;99.90;;;;;;5034071;28;20037;-71
2023/03/12 07:52:28;;;;;;;10.52;8.30;;;2.00;99.90;;;;;;5051622;28;20647;-71
2023/03/12 07:54:55;;;;;;;17.42;10.18;;;2.00;99.90;;;;;;5051295;28;20124;-71
2023/03/12 07:57:21;;;;;;;11.98;9.85;;;2.00;99.90;;;;;;5051641;28;20048;-71
2023/03/12 07:59:47;;;;;;;11.82;8.48;;;2.00;99.90;;;;;;5051347;28;20053;-71
2023/03/12 08:02:13;;;;;;;12.95;8.48;;;2.00;99.90;;;;;;5051210;28;20049;-71
2023/03/12 08:04:38;;;;;;;16.42;9.25;;;2.00;99.90;;;;;;5051101;28;20041;-70
2023/03/12 08:07:04;;;;;;;16.77;9.50;;;2.00;99.90;;;;;;5051571;28;20044;-71
2023/03/12 08:09:31;;;;;;;15.45;9.55;;;1.80;99.90;;;;;;5051595;28;20037;-71
2023/03/12 08:11:56;;;;;;;16.33;10.02;;;1.90;99.90;;;;;;5051379;28;20496;-71
2023/03/12 08:14:22;;;;;;;17.15;9.30;;;1.80;99.90;;;;;;5051127;28;20091;-71
2023/03/12 08:16:47;;;;;;;11.93;9.30;;;1.80;99.90;;;;;;5051373;28;20063;-71
2023/03/12 08:19:13;;;;;;;14.45;9.40;;;1.80;99.90;;;;;;5051569;28;20128;-72
2023/03/12 08:21:39;;;;;;;10.82;8.45;;;1.80;99.90;;;;;;5057352;28;20496;-71
2023/03/12 08:24:04;;;;;;;13.88;10.48;;;1.80;99.90;;;;;;5052865;28;20125;-71
2023/03/12 08:26:30;;;;;;;16.83;10.02;;;1.70;99.90;;;;;;5051254;28;20080;-71
2023/03/12 08:28:55;;;;;;;16.85;10.70;;;1.60;99.90;;;;;;5033501;28;20049;-71
2023/03/12 08:31:21;;;;;;;14.18;10.18;;;1.70;99.90;;;;;;5051117;28;20099;-71
2023/03/12 08:33:46;;;;;;;17.60;11.63;;;1.50;99.90;;;;;;5051136;28;20094;-72
2023/03/12 08:36:12;;;;;;;17.35;11.15;;;1.50;99.90;;;;;;5051349;28;20041;-72
2023/03/12 08:38:38;;;;;;;15.55;12.35;;;1.60;99.90;;;;;;5051255;28;20037;-71
2023/03/12 08:41:03;;;;;;;16.17;11.18;;;1.50;99.90;;;;;;5051171;28;20120;-71
2023/03/12 08:43:29;;;;;;;17.73;12.50;;;1.50;99.90;;;;;;5050899;28;20041;-71
2023/03/12 08:45:56;;;;;;;16.38;12.02;;;1.50;99.90;;;;;;5050835;28;20040;-71
2023/03/12 08:48:22;;;;;;;15.60;12.20;;;1.50;99.90;;;;;;5061213;28;20518;-71
2023/03/12 08:50:47;;;;;;;16.42;12.25;;;1.50;99.90;;;;;;5059690;28;20036;-71
2023/03/12 08:53:14;;;;;;;18.85;12.02;;;1.60;99.90;;;;;;5065200;28;20040;-71
2023/03/12 08:55:39;;;;;;;15.82;11.77;;;1.50;99.90;;;;;;5070862;28;20040;-71
2023/03/12 08:58:05;;;;;;;18.65;12.75;;;1.50;99.90;;;;;;5061140;28;20166;-72
2023/03/12 09:00:30;;;;;;;18.95;12.27;;;1.50;99.90;;;;;;5063523;28;20048;-71
2023/03/12 09:02:57;;;;;;;14.73;12.27;;;1.50;99.90;;;;;;5073897;28;20059;-72
2023/03/12 09:05:24;;;;;;;17.33;12.88;;;1.60;99.90;;;;;;5073986;28;20051;-72
2023/03/12 09:07:49;;;;;;;15.45;11.77;;;1.60;99.90;;;;;;5074251;28;20036;-71
2023/03/12 09:10:16;;;;;;;18.55;13.02;;;1.60;99.90;;;;;;5074354;28;20452;-71
2023/03/12 09:12:43;;;;;;;18.58;14.18;;;1.70;99.90;;;;;;5073800;28;20064;-71
2023/03/12 09:15:09;;;;;;;17.70;12.77;;;1.60;99.90;;;;;;5073857;28;20697;-71
2023/03/12 09:17:35;;;;;;;19.42;12.18;;;1.70;99.90;;;;;;5056137;28;20051;-72
2023/03/12 09:20:00;;;;;;;20.02;13.20;;;1.70;99.90;;;;;;5074162;28;20560;-71
2023/03/12 09:22:28;;;;;;;15.50;10.82;;;1.70;99.90;;;;;;5073854;28;20036;-71
2023/03/12 09:24:54;;;;;;;15.98;12.05;;;1.80;99.90;;;;;;5073743;28;20047;-71
2023/03/12 09:27:19;;;;;;;17.60;12.45;;;1.80;99.90;;;;;;5055910;28;20060;-72
2023/03/12 09:29:45;;;;;;;19.90;12.82;;;1.80;99.90;;;;;;5073707;28;20040;-72
2023/03/12 09:32:13;;;;;;;17.08;13.07;;;1.80;99.90;;;;;;5055965;28;20059;-72
2023/03/12 09:34:38;;;;;;;15.18;11.52;;;1.80;99.90;;;;;;5055847;28;20407;-72
2023/03/12 09:37:04;;;;;;;15.73;11.27;;;1.80;99.90;;;;;;5055704;28;20037;-72
2023/03/12 09:39:30;;;;;;;19.23;12.80;;;1.80;99.90;;;;;;5055650;28;20041;-72
2023/03/12 09:41:56;;;;;;;15.85;11.18;;;1.90;99.90;;;;;;5055262;28;20089;-72
2023/03/12 09:44:34;;;;;;;17.52;12.55;;;1.90;99.90;;;;;;5055343;28;20127;-72
2023/03/12 09:47:07;;;;;;;14.05;11.43;;;1.90;99.90;;;;;;5073264;28;20044;-71
2023/03/12 09:49:50;;;;;;;16.95;11.68;;;1.90;99.90;;;;;;5055980;28;20047;-71
2023/03/12 09:52:26;;;;;;;16.15;11.57;;;2.00;99.90;;;;;;5073271;28;20423;-72
2023/03/12 09:55:05;;;;;;;16.02;11.63;;;1.90;99.90;;;;;;5073385;28;20047;-72
2023/03/12 09:57:31;;;;;;;14.13;10.25;;;1.90;99.90;;;;;;5038841;28;20040;-71
2023/03/12 09:59:56;;;;;;;15.50;11.98;;;2.00;99.90;;;;;;5073546;28;20063;-71
2023/03/12 10:02:37;;;;;;;14.55;12.55;;;2.00;99.90;;;;;;5072863;28;20047;-71
2023/03/12 10:05:26;;;;;;;18.30;12.38;;;2.00;99.90;;;;;;5072522;28;20040;-72
2023/03/12 10:07:59;;;;;;;16.60;12.70;;;2.00;99.90;;;;;;5046251;28;20480;-72
2023/03/12 10:10:45;;;;;;;29.85;19.00;;;2.00;99.90;;;;;;5073395;28;20446;-72
2023/03/12 10:13:22;;;;;;;30.15;19.85;;;2.10;99.90;;;;;;5060217;28;20111;-71
2023/03/12 10:16:17;;;;;;;22.17;17.00;;;2.10;99.90;;;;;;5072913;28;20064;-71
2023/03/12 10:18:46;;;;;;;20.77;14.57;;;2.10;99.90;;;;;;5055474;28;20464;-72
2023/03/12 10:21:34;;;;;;;18.08;14.15;;;2.10;99.90;;;;;;5072796;28;20071;-71
2023/03/12 10:24:27;;;;;;;17.60;14.93;;;2.20;99.90;;;;;;5072932;28;20040;-72
2023/03/12 10:26:55;;;;;;;21.35;15.13;;;2.10;99.90;;;;;;5062701;28;20048;-72
2023/03/12 10:29:44;;;;;;;23.65;15.68;;;2.10;99.90;;;;;;5054685;28;20036;-71
2023/03/12 10:32:09;;;;;;;20.10;15.50;;;2.30;99.90;;;;;;5054875;28;20446;-72
2023/03/12 10:34:41;;;;;;;21.48;16.83;;;2.30;99.90;;;;;;5072421;28;20040;-72
2023/03/12 10:37:28;;;;;;;22.20;17.73;;;2.30;99.90;;;;;;5072188;28;20546;-72
2023/03/12 10:39:54;;;;;;;24.33;18.45;;;2.30;99.90;;;;;;5054775;28;20052;-72
2023/03/12 10:42:25;;;;;;;23.00;18.45;;;2.40;99.90;;;;;;5072197;28;20503;-72
2023/03/12 10:44:55;;;;;;;24.08;18.00;;;2.30;99.90;;;;;;5054384;28;20071;-72
2023/03/12 10:47:29;;;;;;;25.92;21.30;;;2.50;99.90;;;;;;5072396;28;20037;-73
2023/03/12 10:50:20;;;;;;;27.20;19.27;;;2.40;99.90;;;;;;5054586;28;20143;-72
2023/03/12 10:52:48;;;;;;;27.90;19.65;;;2.50;99.90;;;;;;5054050;28;20032;-73
2023/03/12 10:55:25;;;;;;;27.20;19.92;;;2.60;99.90;;;;;;5072197;28;20042;-73
2023/03/12 10:57:52;;;;;;;26.35;21.58;;;2.60;99.90;;;;;;5072256;28;20062;-72
2023/03/12 11:00:22;;;;;;;27.13;20.63;;;2.60;99.90;;;;;;5072154;28;20415;-72
2023/03/12 11:03:19;;;;;;;27.02;19.77;;;2.60;99.90;;;;;;5071669;28;20032;-72
2023/03/12 11:05:51;;;;;;;26.90;20.48;;;2.70;99.90;;;;;;5070569;28;20052;-70
2023/03/12 11:08:22;;;;;;;28.37;20.93;;;2.70;99.90;;;;;;5054116;28;20506;-72
2023/03/12 11:10:49;;;;;;;28.10;19.45;;;2.60;99.90;;;;;;5037692;28;20107;-72
2023/03/12 11:13:26;;;;;;;27.98;20.73;;;2.60;99.90;;;;;;5071805;28;20036;-72
2023/03/12 11:15:53;;;;;;;26.15;20.02;;;2.60;99.90;;;;;;5071764;28;20036;-72
2023/03/12 11:18:26;;;;;;;25.67;18.75;;;2.60;99.90;;;;;;5053964;28;20066;-72
2023/03/12 11:21:08;;;;;;;25.92;19.48;;;2.80;99.90;;;;;;5071989;28;20044;-72
2023/03/12 11:23:35;;;;;;;28.98;19.90;;;2.80;99.90;;;;;;5053891;28;20036;-72
2023/03/12 11:26:11;;;;;;;24.10;19.60;;;2.80;99.90;;;;;;5054018;28;20064;-72
2023/03/12 11:29:01;;;;;;;25.10;19.45;;;2.70;99.90;;;;;;5053879;28;20032;-72
2023/03/12 11:31:35;;;;;;;27.83;20.33;;;2.80;99.90;;;;;;5060407;28;20044;-72
2023/03/12 11:34:05;;;;;;;24.35;18.65;;;2.80;99.90;;;;;;5071566;28;20090;-72
2023/03/12 11:37:07;;;;;;;27.65;19.80;;;2.90;99.90;;;;;;5071433;28;20534;-72
2023/03/12 11:39:36;;;;;;;25.30;18.35;;;2.90;99.90;;;;;;5071597;28;20044;-72
2023/03/12 11:42:23;;;;;;;25.67;19.45;;;3.00;99.90;;;;;;5071331;28;20115;-72
2023/03/12 11:45:03;;;;;;;24.08;17.92;;;3.00;99.90;;;;;;5071146;28;20041;-71
2023/03/12 11:47:53;;;;;;;25.55;18.30;;;3.00;99.90;;;;;;5071675;28;20033;-71
2023/03/12 11:50:41;;;;;;;24.88;19.90;;;3.10;99.90;;;;;;5071497;28;20037;-72
2023/03/12 11:53:24;;;;;;;28.08;22.17;;;3.10;99.90;;;;;;5053464;28;20555;-72
2023/03/12 11:56:28;;;;;;;34.42;25.83;;;3.20;99.90;;;;;;5059781;28;20064;-72
2023/03/12 11:59:05;;;;;;;25.88;19.67;;;3.30;99.90;;;;;;4973368;28;20080;-72
2023/03/12 12:02:09;;;;;;;23.13;18.25;;;3.30;99.90;;;;;;4988959;28;20047;-71
2023/03/12 12:04:46;;;;;;;26.77;18.52;;;3.30;99.90;;;;;;5052835;28;20063;-71
2023/03/12 12:07:18;;;;;;;24.58;18.90;;;3.40;99.90;;;;;;5078529;22;20049;-69
2023/03/12 12:09:57;;;;;;;27.17;18.48;;;3.40;99.90;;;;;;5049496;28;20111;-70
2023/03/12 12:12:43;;;;;;;24.58;16.90;;;3.40;99.90;;;;;;5032660;28;20036;-70
2023/03/12 12:15:15;;;;;;;21.15;16.95;;;3.50;99.90;;;;;;5051380;28;20041;-70
2023/03/12 12:18:15;;;;;;;24.90;17.73;;;3.60;99.90;;;;;;5033146;28;20508;-70
2023/03/12 12:21:06;;;;;;;23.00;15.77;;;3.60;99.90;;;;;;5033334;28;20037;-70
2023/03/12 12:24:13;;;;;;;22.73;16.08;;;3.60;99.90;;;;;;5016995;28;20040;-69
2023/03/12 12:27:05;;;;;;;22.35;15.15;;;3.60;99.90;;;;;;5033511;28;20135;-69
2023/03/12 12:30:07;;;;;;;22.15;15.60;;;3.70;99.90;;;;;;5035085;28;20052;-71
2023/03/12 12:32:51;;;;;;;21.70;15.63;;;3.80;99.90;;;;;;5055463;28;20037;-71
2023/03/12 12:35:33;;;;;;;20.67;14.45;;;3.90;99.90;;;;;;5055050;28;20041;-71
2023/03/12 12:38:29;;;;;;;25.20;15.15;;;3.90;99.90;;;;;;5055169;28;20454;-70
2023/03/12 12:41:16;;;;;;;20.20;13.95;;;3.90;99.90;;;;;;5037291;28;20045;-71
2023/03/12 12:43:52;;;;;;;25.35;16.48;;;4.10;99.90;;;;;;5054764;28;20538;-70
2023/03/12 12:46:25;;;;;;;24.63;16.45;;;4.30;99.90;;;;;;5037189;28;20041;-71
2023/03/12 12:48:59;;;;;;;24.93;14.90;;;4.30;99.90;;;;;;5037372;28;20443;-71
2023/03/12 12:51:32;;;;;;;23.55;16.88;;;4.30;99.90;;;;;;5055015;28;20037;-71
2023/03/12 12:54:15;;;;;;;23.60;16.08;;;4.40;99.90;;;;;;5054729;28;20044;-71
2023/03/12 12:56:58;;;;;;;21.63;14.68;;;4.60;99.90;;;;;;5055028;28;20080;-70
2023/03/12 12:59:31;;;;;;;25.98;15.93;;;4.70;99.90;;;;;;5036443;28;20118;-71
2023/03/12 13:01:59;;;;;;;27.45;16.60;;;4.60;99.90;;;;;;5036285;28;20045;-70